createdAt,value
2023-04-30T00:01:47.509Z,66.37
2023-04-30T00:04:16.120Z,66.12
2023-04-30T00:06:44.070Z,66.41
2023-04-30T00:09:12.470Z,66.74
2023-04-30T00:11:40.612Z,67.33
2023-04-30T00:14:11.836Z,67.27
2023-04-30T00:16:39.712Z,67.41
2023-04-30T00:19:08.489Z,67.51
2023-04-30T00:21:36.772Z,67.32
2023-04-30T00:24:04.946Z,67.44
2023-04-30T00:26:32.816Z,67.45
2023-04-30T00:29:00.774Z,67.52
2023-04-30T00:31:28.654Z,67.80
2023-04-30T00:33:57.740Z,68.08
2023-04-30T00:36:25.600Z,68.10
2023-04-30T00:38:53.436Z,68.25
2023-04-30T00:41:22.864Z,68.16
2023-04-30T00:43:50.950Z,68.21
2023-04-30T00:46:19.054Z,68.18
2023-04-30T00:48:47.393Z,68.55
2023-04-30T00:51:15.356Z,68.78
2023-04-30T00:53:44.053Z,68.28
2023-04-30T00:56:13.542Z,68.12
2023-04-30T00:58:41.436Z,68.06
2023-04-30T01:01:09.609Z,68.37
2023-04-30T01:03:37.677Z,68.22
2023-04-30T01:06:05.956Z,67.82
2023-04-30T01:08:34.138Z,68.45
2023-04-30T01:11:02.178Z,68.36
2023-04-30T01:13:35.989Z,68.42
2023-04-30T01:16:19.452Z,68.45
2023-04-30T01:18:55.267Z,68.62
2023-04-30T01:21:24.667Z,68.52
2023-04-30T01:23:56.211Z,69.02
2023-04-30T01:26:27.275Z,69.43
2023-04-30T01:28:57.388Z,69.19
2023-04-30T01:31:28.097Z,69.47
2023-04-30T01:33:55.983Z,69.47
2023-04-30T01:36:39.310Z,69.75
2023-04-30T01:39:20.172Z,69.67
2023-04-30T01:41:58.117Z,69.81
2023-04-30T01:44:46.926Z,69.67
2023-04-30T01:47:34.039Z,69.83
2023-04-30T01:50:14.106Z,70.14
2023-04-30T01:52:46.066Z,70.46
2023-04-30T01:55:32.775Z,70.46
2023-04-30T01:58:01.662Z,70.48
2023-04-30T02:00:33.116Z,70.54
2023-04-30T02:03:01.317Z,70.61
2023-04-30T02:05:31.306Z,71.15
2023-04-30T02:07:59.577Z,70.71
2023-04-30T02:10:29.603Z,71.20
2023-04-30T02:12:57.770Z,71.45
2023-04-30T02:15:25.838Z,71.01
2023-04-30T02:17:53.743Z,70.70
2023-04-30T02:20:21.633Z,70.92
2023-04-30T02:22:49.602Z,70.98
2023-04-30T02:25:17.492Z,70.96
2023-04-30T02:27:45.674Z,70.74
2023-04-30T02:30:13.856Z,71.14
2023-04-30T02:32:42.065Z,71.15
2023-04-30T02:35:10.912Z,71.23
2023-04-30T02:37:39.493Z,71.53
2023-04-30T02:40:08.047Z,71.74
2023-04-30T02:42:35.889Z,71.65
2023-04-30T02:45:05.242Z,71.56
2023-04-30T02:47:33.334Z,71.73
2023-04-30T02:50:01.614Z,71.70
2023-04-30T02:52:29.758Z,71.80
2023-04-30T02:54:57.571Z,71.44
2023-04-30T02:57:26.630Z,71.27
2023-04-30T02:59:54.825Z,71.74
2023-04-30T03:02:23.850Z,72.00
2023-04-30T03:04:52.260Z,71.98
2023-04-30T03:07:20.231Z,71.86
2023-04-30T03:09:48.405Z,71.68
2023-04-30T03:12:16.669Z,71.68
2023-04-30T03:14:44.648Z,72.02
2023-04-30T03:17:12.513Z,72.59
2023-04-30T03:19:40.579Z,72.51
2023-04-30T03:22:08.751Z,72.53
2023-04-30T03:24:36.560Z,73.03
2023-04-30T03:27:04.812Z,73.18
2023-04-30T03:29:32.968Z,73.14
2023-04-30T03:32:00.903Z,73.35
2023-04-30T03:34:29.320Z,73.69
2023-04-30T03:36:57.795Z,73.30
2023-04-30T03:39:26.090Z,73.68
2023-04-30T03:41:54.145Z,73.57
2023-04-30T03:44:21.973Z,73.83
2023-04-30T03:46:49.865Z,73.27
2023-04-30T03:49:17.810Z,73.13
2023-04-30T03:51:46.224Z,73.85
2023-04-30T03:54:14.285Z,75.12
2023-04-30T03:56:42.433Z,75.44
2023-04-30T03:59:10.436Z,74.39
2023-04-30T04:01:38.433Z,73.35
2023-04-30T04:04:06.634Z,72.94
2023-04-30T04:06:35.038Z,72.33
2023-04-30T04:09:04.581Z,71.70
2023-04-30T04:11:32.532Z,70.53
2023-04-30T04:14:01.250Z,69.86
2023-04-30T04:16:29.447Z,68.99
2023-04-30T04:18:57.464Z,68.09
2023-04-30T04:21:25.508Z,67.45
2023-04-30T04:23:53.599Z,66.76
2023-04-30T04:26:25.750Z,66.20
2023-04-30T04:28:53.842Z,65.19
2023-04-30T04:31:22.909Z,64.30
2023-04-30T04:33:58.274Z,63.30
2023-04-30T04:36:27.866Z,61.78
2023-04-30T04:39:02.624Z,61.01
2023-04-30T04:41:31.423Z,60.56
2023-04-30T04:44:00.285Z,58.77
2023-04-30T04:46:28.582Z,57.84
2023-04-30T04:48:56.767Z,57.41
2023-04-30T04:51:25.109Z,56.63
2023-04-30T04:53:53.030Z,55.25
2023-04-30T04:56:21.145Z,54.77
2023-04-30T04:58:49.103Z,53.80
2023-04-30T05:01:17.745Z,52.76
2023-04-30T05:03:47.755Z,52.65
2023-04-30T05:06:15.781Z,52.26
2023-04-30T05:08:43.989Z,52.54
2023-04-30T05:11:14.131Z,52.79
2023-04-30T05:13:43.474Z,52.35
2023-04-30T05:16:11.583Z,51.87
2023-04-30T05:18:39.423Z,52.13
2023-04-30T05:21:07.281Z,51.86
2023-04-30T05:23:35.243Z,51.57
2023-04-30T05:26:03.935Z,50.42
2023-04-30T05:28:32.000Z,49.53
2023-04-30T05:30:59.976Z,49.65
2023-04-30T05:33:28.039Z,48.90
2023-04-30T05:35:55.910Z,49.07
2023-04-30T05:38:24.186Z,48.22
2023-04-30T05:40:52.216Z,47.52
2023-04-30T05:43:20.113Z,47.54
2023-04-30T05:45:47.987Z,47.55
2023-04-30T05:48:15.855Z,46.87
2023-04-30T05:50:43.919Z,46.52
2023-04-30T05:53:14.061Z,46.54
2023-04-30T05:55:42.517Z,46.01
2023-04-30T05:58:10.325Z,45.20
2023-04-30T06:00:39.301Z,44.49
2023-04-30T06:03:08.058Z,43.67
2023-04-30T06:05:36.172Z,42.97
2023-04-30T06:08:04.309Z,42.87
2023-04-30T06:10:32.165Z,42.83
2023-04-30T06:13:00.235Z,42.47
2023-04-30T06:15:28.188Z,42.52
2023-04-30T06:17:56.034Z,42.25
2023-04-30T06:20:24.162Z,41.38
2023-04-30T06:22:52.118Z,41.54
2023-04-30T06:25:23.164Z,41.46
2023-04-30T06:27:54.244Z,41.44
2023-04-30T06:30:22.161Z,40.82
2023-04-30T06:32:50.372Z,40.96
2023-04-30T06:35:18.312Z,40.81
2023-04-30T06:37:47.055Z,40.41
2023-04-30T06:40:15.171Z,39.83
2023-04-30T06:42:43.808Z,39.70
2023-04-30T06:45:15.207Z,39.34
2023-04-30T06:47:44.760Z,39.70
2023-04-30T06:50:12.750Z,39.70
2023-04-30T06:52:40.839Z,39.31
2023-04-30T06:55:09.618Z,38.88
2023-04-30T06:57:37.757Z,38.19
2023-04-30T07:00:06.850Z,38.02
2023-04-30T07:02:35.388Z,37.60
2023-04-30T07:05:03.467Z,37.51
2023-04-30T07:07:32.520Z,37.50
2023-04-30T07:10:00.519Z,37.30
2023-04-30T07:12:28.369Z,36.76
2023-04-30T07:14:56.856Z,36.45
2023-04-30T07:17:27.506Z,36.52
2023-04-30T07:19:56.302Z,36.94
2023-04-30T07:22:24.439Z,37.55
2023-04-30T07:24:52.420Z,37.37
2023-04-30T07:27:20.592Z,37.24
2023-04-30T07:29:48.766Z,37.47
2023-04-30T07:32:16.546Z,37.22
2023-04-30T07:34:44.520Z,37.18
2023-04-30T07:37:12.704Z,37.08
2023-04-30T07:39:40.640Z,37.29
2023-04-30T07:42:08.781Z,37.08
2023-04-30T07:44:36.684Z,37.05
2023-04-30T07:47:05.209Z,37.24
2023-04-30T07:49:33.221Z,37.13
2023-04-30T07:52:01.706Z,37.25
2023-04-30T07:54:29.761Z,37.59
2023-04-30T07:56:57.840Z,37.70
2023-04-30T07:59:26.000Z,37.40
2023-04-30T08:01:54.138Z,37.26
2023-04-30T08:04:22.287Z,37.20
2023-04-30T08:06:50.688Z,37.11
2023-04-30T08:09:18.703Z,37.15
2023-04-30T08:11:46.885Z,37.53
2023-04-30T08:14:14.957Z,37.84
2023-04-30T08:16:42.884Z,38.24
2023-04-30T08:19:10.898Z,38.25
2023-04-30T08:21:39.169Z,38.29
2023-04-30T08:24:07.437Z,38.35
2023-04-30T08:26:35.514Z,38.78
2023-04-30T08:29:03.393Z,38.89
2023-04-30T08:31:31.220Z,38.68
2023-04-30T08:33:59.217Z,37.71
2023-04-30T08:36:28.111Z,37.98
2023-04-30T08:38:57.504Z,37.63
2023-04-30T08:41:26.496Z,37.19
2023-04-30T08:43:54.975Z,36.90
2023-04-30T08:46:24.561Z,36.74
2023-04-30T08:48:52.552Z,37.22
2023-04-30T08:51:20.942Z,37.39
2023-04-30T08:53:50.864Z,37.40
2023-04-30T08:56:18.816Z,37.45
2023-04-30T08:58:46.778Z,37.30
2023-04-30T09:01:15.715Z,37.09
2023-04-30T09:03:44.386Z,37.25
2023-04-30T09:06:15.634Z,37.21
2023-04-30T09:08:47.423Z,37.50
2023-04-30T09:11:27.465Z,37.48
2023-04-30T09:13:57.444Z,37.11
2023-04-30T09:16:33.443Z,37.29
2023-04-30T09:19:01.858Z,37.16
2023-04-30T09:21:33.511Z,36.15
2023-04-30T09:24:03.029Z,35.82
2023-04-30T09:26:31.594Z,36.21
2023-04-30T09:29:00.490Z,36.61
2023-04-30T09:31:28.906Z,36.66
2023-04-30T09:33:56.947Z,36.14
2023-04-30T09:36:25.013Z,35.42
2023-04-30T09:38:52.973Z,34.92
2023-04-30T09:41:21.859Z,35.22
2023-04-30T09:43:49.941Z,34.42
2023-04-30T09:46:21.773Z,34.33
2023-04-30T09:49:00.013Z,33.59
2023-04-30T09:51:28.904Z,32.99
2023-04-30T09:53:56.867Z,31.42
2023-04-30T09:56:26.262Z,31.14
2023-04-30T09:58:54.942Z,31.67
2023-04-30T10:01:26.656Z,31.44
2023-04-30T10:03:55.396Z,31.38
2023-04-30T10:06:24.379Z,31.83
2023-04-30T10:08:53.891Z,32.35
2023-04-30T10:11:23.393Z,32.56
2023-04-30T10:13:57.091Z,32.33
2023-04-30T10:16:24.904Z,31.07
2023-04-30T10:18:54.160Z,30.42
2023-04-30T10:21:23.632Z,29.62
2023-04-30T10:23:51.938Z,29.97
2023-04-30T10:26:20.432Z,30.34
2023-04-30T10:28:50.744Z,30.63
2023-04-30T10:31:20.787Z,30.87
2023-04-30T10:33:59.581Z,30.71
2023-04-30T10:36:37.792Z,30.22
2023-04-30T10:39:06.029Z,30.10
2023-04-30T10:41:34.206Z,29.88
2023-04-30T10:44:02.578Z,29.89
2023-04-30T10:46:30.396Z,29.41
2023-04-30T10:48:58.550Z,29.63
2023-04-30T10:51:44.317Z,29.70
2023-04-30T10:54:13.934Z,29.69
2023-04-30T10:56:44.674Z,29.75
2023-04-30T10:59:13.003Z,29.42
2023-04-30T11:02:00.286Z,29.14
2023-04-30T11:04:28.909Z,29.72
2023-04-30T11:07:03.577Z,30.10
2023-04-30T11:09:36.881Z,30.44
2023-04-30T11:12:09.872Z,31.37
2023-04-30T11:14:40.990Z,31.67
2023-04-30T11:17:09.814Z,31.19
2023-04-30T11:19:42.931Z,30.65
2023-04-30T11:22:11.669Z,29.91
2023-04-30T11:24:55.403Z,30.21
2023-04-30T11:27:24.349Z,31.00
2023-04-30T11:29:53.363Z,31.57
2023-04-30T11:32:22.822Z,31.75
2023-04-30T11:34:51.337Z,31.33
2023-04-30T11:37:21.124Z,31.37
2023-04-30T11:39:50.384Z,30.73
2023-04-30T11:42:19.082Z,30.50
2023-04-30T11:44:47.118Z,31.22
2023-04-30T11:47:15.758Z,31.42
2023-04-30T11:49:43.714Z,30.35
2023-04-30T11:52:13.323Z,29.71
2023-04-30T11:54:41.269Z,30.62
2023-04-30T11:57:09.257Z,30.49
2023-04-30T11:59:42.346Z,29.62
2023-04-30T12:02:12.965Z,30.09
2023-04-30T12:04:43.485Z,29.80
2023-04-30T12:07:11.227Z,29.60
2023-04-30T12:09:55.423Z,29.84
2023-04-30T12:12:30.736Z,29.39
2023-04-30T12:14:59.523Z,28.97
2023-04-30T12:17:34.473Z,28.70
2023-04-30T12:20:02.736Z,28.76
2023-04-30T12:22:30.964Z,29.07
2023-04-30T12:24:59.887Z,29.51
2023-04-30T12:27:27.962Z,29.80
2023-04-30T12:29:56.834Z,29.86
2023-04-30T12:32:25.177Z,29.68
2023-04-30T12:34:58.912Z,29.34
2023-04-30T12:37:27.110Z,29.89
2023-04-30T12:39:56.071Z,30.51
2023-04-30T12:42:25.090Z,30.32
2023-04-30T12:44:53.170Z,30.40
2023-04-30T12:47:21.092Z,30.52
2023-04-30T12:49:49.503Z,30.43
2023-04-30T12:52:17.328Z,31.07
2023-04-30T12:54:45.515Z,31.25
2023-04-30T12:57:13.507Z,31.47
2023-04-30T12:59:53.755Z,30.50
2023-04-30T13:02:26.144Z,30.30
2023-04-30T13:04:54.313Z,30.03
2023-04-30T13:07:23.302Z,30.18
2023-04-30T13:09:51.124Z,30.04
2023-04-30T13:12:20.567Z,31.03
2023-04-30T13:14:48.650Z,30.85
2023-04-30T13:17:16.931Z,31.16
2023-04-30T13:19:44.791Z,30.34
2023-04-30T13:22:12.925Z,30.71
2023-04-30T13:24:40.943Z,31.03
2023-04-30T13:27:08.825Z,31.24
2023-04-30T13:29:36.766Z,31.64
2023-04-30T13:32:04.836Z,31.58
2023-04-30T13:34:32.993Z,31.60
2023-04-30T13:37:00.936Z,32.12
2023-04-30T13:39:28.842Z,32.38
2023-04-30T13:41:56.569Z,32.36
2023-04-30T13:44:24.455Z,32.63
2023-04-30T13:46:52.383Z,31.75
2023-04-30T13:49:20.523Z,31.77
2023-04-30T13:51:48.478Z,32.04
2023-04-30T13:54:16.730Z,32.31
2023-04-30T13:56:44.755Z,32.88
2023-04-30T13:59:12.670Z,33.14
2023-04-30T14:01:40.902Z,32.95
2023-04-30T14:04:09.128Z,32.58
2023-04-30T14:06:38.917Z,32.54
2023-04-30T14:09:07.018Z,32.28
2023-04-30T14:11:34.993Z,32.93
2023-04-30T14:14:03.266Z,33.51
2023-04-30T14:16:32.003Z,32.77
2023-04-30T14:19:00.109Z,32.50
2023-04-30T14:21:28.717Z,32.74
2023-04-30T14:23:56.587Z,32.88
2023-04-30T14:26:24.502Z,32.76
2023-04-30T14:28:52.502Z,32.37
2023-04-30T14:31:20.392Z,32.52
2023-04-30T14:33:48.310Z,33.00
2023-04-30T14:36:16.917Z,32.94
2023-04-30T14:38:44.890Z,32.76
2023-04-30T14:41:13.072Z,32.79
2023-04-30T14:43:41.788Z,32.78
2023-04-30T14:46:09.913Z,32.51
2023-04-30T14:48:38.096Z,32.67
2023-04-30T14:51:06.162Z,33.08
2023-04-30T14:53:34.037Z,33.48
2023-04-30T14:56:02.523Z,33.52
2023-04-30T14:58:30.579Z,33.78
2023-04-30T15:00:58.909Z,33.19
2023-04-30T15:03:26.882Z,33.01
2023-04-30T15:05:55.951Z,33.17
2023-04-30T15:08:24.187Z,33.08
2023-04-30T15:10:52.260Z,33.26
2023-04-30T15:13:20.339Z,33.52
2023-04-30T15:15:49.853Z,33.19
2023-04-30T15:18:17.809Z,32.83
2023-04-30T15:20:45.767Z,32.83
2023-04-30T15:23:13.947Z,32.75
2023-04-30T15:25:44.264Z,32.71
2023-04-30T15:28:12.658Z,33.05
2023-04-30T15:30:40.772Z,33.16
2023-04-30T15:33:08.711Z,33.04
2023-04-30T15:35:36.543Z,33.24
2023-04-30T15:38:04.406Z,33.40
2023-04-30T15:40:32.174Z,33.69
2023-04-30T15:43:00.261Z,34.03
2023-04-30T15:45:29.517Z,34.45
2023-04-30T15:47:57.557Z,34.79
2023-04-30T15:50:26.198Z,34.61
2023-04-30T15:52:54.285Z,34.42
2023-04-30T15:55:22.656Z,34.45
2023-04-30T15:57:51.415Z,34.34
2023-04-30T16:00:19.411Z,34.23
2023-04-30T16:02:47.549Z,34.37
2023-04-30T16:05:15.554Z,34.78
2023-04-30T16:07:44.957Z,34.87
2023-04-30T16:10:13.332Z,35.00
2023-04-30T16:12:41.423Z,35.43
2023-04-30T16:15:10.205Z,35.65
2023-04-30T16:17:38.171Z,36.00
2023-04-30T16:20:07.039Z,36.35
2023-04-30T16:22:34.873Z,36.55
2023-04-30T16:25:03.180Z,36.86
2023-04-30T16:27:31.251Z,36.94
2023-04-30T16:29:59.167Z,37.04
2023-04-30T16:32:27.364Z,37.07
2023-04-30T16:34:55.431Z,37.21
2023-04-30T16:37:23.229Z,37.62
2023-04-30T16:39:51.093Z,38.02
2023-04-30T16:42:19.010Z,38.29
2023-04-30T16:44:46.936Z,38.60
2023-04-30T16:47:17.460Z,38.81
2023-04-30T16:49:45.232Z,38.93
2023-04-30T16:52:13.624Z,38.91
2023-04-30T16:54:41.419Z,38.95
2023-04-30T16:57:09.424Z,38.94
2023-04-30T16:59:37.812Z,39.20
2023-04-30T17:02:06.833Z,39.26
2023-04-30T17:04:36.062Z,39.29
2023-04-30T17:07:04.042Z,39.60
2023-04-30T17:09:31.941Z,39.98
2023-04-30T17:11:59.831Z,39.99
2023-04-30T17:14:28.817Z,40.00
2023-04-30T17:16:57.380Z,40.13
2023-04-30T17:19:25.203Z,40.56
2023-04-30T17:21:53.086Z,40.90
2023-04-30T17:24:21.150Z,40.82
2023-04-30T17:26:49.290Z,41.56
2023-04-30T17:29:17.322Z,42.09
2023-04-30T17:31:45.253Z,42.01
2023-04-30T17:34:13.778Z,42.09
2023-04-30T17:36:42.156Z,42.77
2023-04-30T17:39:10.738Z,42.60
2023-04-30T17:41:38.694Z,42.72
2023-04-30T17:44:06.670Z,42.72
2023-04-30T17:46:34.670Z,42.84
2023-04-30T17:49:03.839Z,43.19
2023-04-30T17:51:31.908Z,43.52
2023-04-30T17:53:59.897Z,43.41
2023-04-30T17:56:30.088Z,43.65
2023-04-30T17:58:58.265Z,43.76
2023-04-30T18:01:27.089Z,44.83
2023-04-30T18:03:55.494Z,45.89
2023-04-30T18:06:23.512Z,47.53
2023-04-30T18:08:51.672Z,48.50
2023-04-30T18:11:20.134Z,48.83
2023-04-30T18:13:48.248Z,49.38
2023-04-30T18:16:16.456Z,50.67
2023-04-30T18:18:44.571Z,51.34
2023-04-30T18:21:12.547Z,51.68
2023-04-30T18:23:41.329Z,51.81
2023-04-30T18:26:09.319Z,52.00
2023-04-30T18:28:37.825Z,52.38
2023-04-30T18:31:05.751Z,53.38
2023-04-30T18:33:33.615Z,53.52
2023-04-30T18:36:05.387Z,53.23
2023-04-30T18:38:37.016Z,53.93
2023-04-30T18:41:05.390Z,55.70
2023-04-30T18:43:33.888Z,56.29
2023-04-30T18:46:02.025Z,55.89
2023-04-30T18:48:30.231Z,55.79
2023-04-30T18:50:58.211Z,55.97
2023-04-30T18:53:26.370Z,56.15
2023-04-30T18:55:56.382Z,55.88
2023-04-30T18:58:24.361Z,55.83
2023-04-30T19:00:52.864Z,55.98
2023-04-30T19:03:21.142Z,56.54
2023-04-30T19:05:53.282Z,56.51
2023-04-30T19:08:21.137Z,56.66
2023-04-30T19:10:50.961Z,56.51
2023-04-30T19:13:19.421Z,56.55
2023-04-30T19:15:48.961Z,56.65
2023-04-30T19:18:18.101Z,57.20
2023-04-30T19:21:00.198Z,57.21
2023-04-30T19:23:30.631Z,57.68
2023-04-30T19:25:59.667Z,57.67
2023-04-30T19:28:28.147Z,57.69
2023-04-30T19:30:56.792Z,57.81
2023-04-30T19:33:25.628Z,57.77
2023-04-30T19:35:54.920Z,57.87
2023-04-30T19:38:23.289Z,57.96
2023-04-30T19:40:54.528Z,57.75
2023-04-30T19:43:22.976Z,57.88
2023-04-30T19:45:55.021Z,57.86
2023-04-30T19:48:23.974Z,57.72
2023-04-30T19:50:53.876Z,58.34
2023-04-30T19:53:21.939Z,57.79
2023-04-30T19:55:52.521Z,57.43
2023-04-30T19:58:20.622Z,57.48
2023-04-30T20:00:48.932Z,57.93
2023-04-30T20:03:17.602Z,58.74
2023-04-30T20:05:45.629Z,59.39
2023-04-30T20:08:13.658Z,59.57
2023-04-30T20:10:42.969Z,59.43
2023-04-30T20:13:11.428Z,59.21
2023-04-30T20:15:39.401Z,59.04
2023-04-30T20:18:07.511Z,58.81
2023-04-30T20:20:35.412Z,58.96
2023-04-30T20:23:15.817Z,58.93
2023-04-30T20:25:45.589Z,59.32
2023-04-30T20:28:14.474Z,59.38
2023-04-30T20:30:43.346Z,59.42
2023-04-30T20:33:14.721Z,59.77
2023-04-30T20:35:47.556Z,59.91
2023-04-30T20:38:19.547Z,60.00
2023-04-30T20:40:48.350Z,60.04
2023-04-30T20:43:16.850Z,59.83
2023-04-30T20:45:45.011Z,59.57
2023-04-30T20:48:12.943Z,60.13
2023-04-30T20:50:41.355Z,60.44
2023-04-30T20:53:11.270Z,60.89
2023-04-30T20:55:39.176Z,61.06
2023-04-30T20:58:09.078Z,62.06
2023-04-30T21:00:37.236Z,62.38
2023-04-30T21:03:06.523Z,63.03
2023-04-30T21:05:34.559Z,63.61
2023-04-30T21:08:02.577Z,63.55
2023-04-30T21:10:36.561Z,63.65
2023-04-30T21:13:05.618Z,63.75
2023-04-30T21:15:35.684Z,63.70
2023-04-30T21:18:03.967Z,63.77
2023-04-30T21:20:32.575Z,63.47
2023-04-30T21:23:01.539Z,63.68
2023-04-30T21:25:29.624Z,63.70
2023-04-30T21:27:57.548Z,64.01
2023-04-30T21:30:26.720Z,64.22
2023-04-30T21:32:58.967Z,65.04
2023-04-30T21:35:29.844Z,65.46
2023-04-30T21:37:57.827Z,66.05
2023-04-30T21:40:25.929Z,66.21
2023-04-30T21:42:53.766Z,66.25
2023-04-30T21:45:21.658Z,66.45
2023-04-30T21:47:49.645Z,67.32
2023-04-30T21:50:17.482Z,67.06
2023-04-30T21:52:45.578Z,67.45
2023-04-30T21:55:13.438Z,67.61
2023-04-30T21:57:41.496Z,67.48
2023-04-30T22:00:14.668Z,67.31
2023-04-30T22:02:49.353Z,67.25
2023-04-30T22:05:18.133Z,67.16
2023-04-30T22:07:47.525Z,67.31
2023-04-30T22:10:15.652Z,67.60
2023-04-30T22:12:47.093Z,67.61
2023-04-30T22:15:15.798Z,67.97
2023-04-30T22:17:44.359Z,68.33
2023-04-30T22:20:12.443Z,69.01
2023-04-30T22:22:40.450Z,69.25
2023-04-30T22:25:10.094Z,69.52
2023-04-30T22:27:38.083Z,69.66
2023-04-30T22:30:06.782Z,70.26
2023-04-30T22:32:34.849Z,70.21
2023-04-30T22:35:03.575Z,69.98
2023-04-30T22:37:31.715Z,69.75
2023-04-30T22:39:59.717Z,69.87
2023-04-30T22:42:28.717Z,70.39
2023-04-30T22:44:57.256Z,69.98
2023-04-30T22:47:27.316Z,69.83
2023-04-30T22:49:56.945Z,69.90
2023-04-30T22:52:26.271Z,70.00
2023-04-30T22:54:54.256Z,70.13
2023-04-30T22:57:25.801Z,70.51
2023-04-30T22:59:54.388Z,70.21
2023-04-30T23:02:23.023Z,70.23
2023-04-30T23:04:51.769Z,70.24
2023-04-30T23:07:19.795Z,70.67
2023-04-30T23:09:47.792Z,70.96
2023-04-30T23:12:16.175Z,70.93
2023-04-30T23:14:44.042Z,70.84
2023-04-30T23:17:12.005Z,71.21
2023-04-30T23:19:39.869Z,71.49
2023-04-30T23:22:07.737Z,71.25
2023-04-30T23:24:36.164Z,71.02
2023-04-30T23:27:04.633Z,71.38
2023-04-30T23:29:34.894Z,71.30
2023-04-30T23:32:04.784Z,71.59
2023-04-30T23:34:32.798Z,72.01
2023-04-30T23:37:01.293Z,72.23
2023-04-30T23:39:29.352Z,72.84
2023-04-30T23:41:57.839Z,72.67
2023-04-30T23:44:25.598Z,72.35
2023-04-30T23:46:55.704Z,72.28
2023-04-30T23:49:25.217Z,72.28
2023-04-30T23:51:53.294Z,72.46
2023-04-30T23:54:21.202Z,72.96
2023-04-30T23:56:49.944Z,72.65
2023-04-30T23:59:17.908Z,72.28
